createdAt,value
2019-03-23T00:01:22.923Z,53.38
2019-03-23T00:03:53.137Z,60.73
2019-03-23T00:06:30.704Z,60.80
2019-03-23T00:08:55.249Z,59.80
2019-03-23T00:11:26.051Z,61.35
2019-03-23T00:13:56.290Z,60.33
2019-03-23T00:16:29.546Z,64.45
2019-03-23T00:18:59.851Z,59.60
2019-03-23T00:21:30.063Z,62.90
2019-03-23T00:24:00.225Z,64.40
2019-03-23T00:26:30.433Z,57.93
2019-03-23T00:29:00.594Z,60.10
2019-03-23T00:31:30.815Z,64.32
2019-03-23T00:34:00.997Z,59.20
2019-03-23T00:36:40.812Z,62.40
2019-03-23T00:39:03.455Z,59.15
2019-03-23T00:41:34.827Z,57.58
2019-03-23T00:44:07.356Z,55.10
2019-03-23T00:46:36.990Z,52.85
2019-03-23T00:49:07.179Z,59.08
2019-03-23T00:51:37.799Z,59.83
2019-03-23T00:54:07.998Z,57.40
2019-03-23T00:56:38.738Z,55.70
2019-03-23T00:59:08.926Z,56.55
2019-03-23T01:01:39.129Z,56.63
2019-03-23T01:04:09.299Z,55.43
2019-03-23T01:06:39.526Z,54.42
2019-03-23T01:09:10.165Z,61.58
2019-03-23T01:11:40.418Z,58.10
2019-03-23T01:14:10.595Z,60.40
2019-03-23T01:16:40.889Z,62.90
2019-03-23T01:19:11.077Z,61.48
2019-03-23T01:21:41.586Z,71.30
2019-03-23T01:24:16.718Z,64.75
2019-03-23T01:26:47.571Z,65.70
2019-03-23T01:29:17.739Z,64.27
2019-03-23T01:31:47.956Z,63.08
2019-03-23T01:34:18.122Z,67.80
2019-03-23T01:36:48.954Z,64.90
2019-03-23T01:39:19.145Z,62.85
2019-03-23T01:41:49.430Z,63.70
2019-03-23T01:44:19.613Z,62.48
2019-03-23T01:46:49.825Z,71.00
2019-03-23T01:49:21.696Z,66.02
2019-03-23T01:51:52.034Z,61.30
2019-03-23T01:54:22.205Z,72.12
2019-03-23T01:56:55.883Z,70.08
2019-03-23T01:59:26.104Z,62.43
2019-03-23T02:01:56.314Z,72.12
2019-03-23T02:04:26.622Z,69.35
2019-03-23T02:06:56.860Z,65.85
2019-03-23T02:09:27.067Z,76.15
2019-03-23T02:11:57.358Z,80.17
2019-03-23T02:14:27.451Z,69.47
2019-03-23T02:16:57.775Z,65.87
2019-03-23T02:19:28.086Z,68.12
2019-03-23T02:21:58.306Z,64.62
2019-03-23T02:24:28.466Z,66.75
2019-03-23T02:26:58.690Z,69.10
2019-03-23T02:29:29.065Z,62.13
2019-03-23T02:31:59.290Z,60.55
2019-03-23T02:34:29.507Z,62.65
2019-03-23T02:36:59.731Z,60.08
2019-03-23T02:39:29.895Z,57.60
2019-03-23T02:42:00.119Z,58.45
2019-03-23T02:44:30.355Z,59.95
2019-03-23T02:47:00.591Z,62.55
2019-03-23T02:49:31.035Z,64.65
2019-03-23T02:52:01.321Z,63.40
2019-03-23T02:54:32.135Z,59.80
2019-03-23T02:57:02.430Z,59.40
2019-03-23T02:59:32.647Z,57.55
2019-03-23T03:02:02.826Z,52.90
2019-03-23T03:04:33.092Z,55.55
2019-03-23T03:07:03.365Z,58.98
2019-03-23T03:09:33.641Z,53.98
2019-03-23T03:12:03.956Z,50.75
2019-03-23T03:14:34.144Z,53.02
2019-03-23T03:17:04.320Z,54.75
2019-03-23T03:19:34.560Z,50.95
2019-03-23T03:22:04.745Z,50.58
2019-03-23T03:24:35.079Z,51.05
2019-03-23T03:27:05.266Z,50.45
2019-03-23T03:29:35.608Z,48.50
2019-03-23T03:32:05.845Z,51.02
2019-03-23T03:34:36.004Z,54.38
2019-03-23T03:37:06.160Z,48.58
2019-03-23T03:39:36.416Z,51.95
2019-03-23T03:42:06.599Z,50.78
2019-03-23T03:44:36.837Z,49.85
2019-03-23T03:47:09.368Z,50.85
2019-03-23T03:49:39.724Z,55.92
2019-03-23T03:52:10.632Z,49.10
2019-03-23T03:54:43.174Z,49.60
2019-03-23T03:57:13.383Z,56.40
2019-03-23T03:59:44.118Z,49.10
2019-03-23T04:02:14.311Z,48.95
2019-03-23T04:04:44.534Z,49.70
2019-03-23T04:07:14.723Z,47.53
2019-03-23T04:09:45.006Z,48.87
2019-03-23T04:12:15.239Z,49.98
2019-03-23T04:14:45.539Z,50.28
2019-03-23T04:17:15.714Z,51.50
2019-03-23T04:19:48.496Z,50.30
2019-03-23T04:22:19.006Z,52.40
2019-03-23T04:24:49.533Z,49.10
2019-03-23T04:27:19.714Z,51.05
2019-03-23T04:29:49.957Z,54.42
2019-03-23T04:32:20.112Z,51.02
2019-03-23T04:34:50.343Z,53.28
2019-03-23T04:37:20.503Z,51.85
2019-03-23T04:39:50.695Z,49.67
2019-03-23T04:42:20.927Z,53.60
2019-03-23T04:44:51.252Z,49.77
2019-03-23T04:47:21.691Z,50.52
2019-03-23T04:49:51.949Z,50.73
2019-03-23T04:52:25.158Z,48.98
2019-03-23T04:54:55.393Z,56.25
2019-03-23T04:57:25.566Z,53.10
2019-03-23T04:59:55.788Z,54.08
2019-03-23T05:02:25.963Z,52.25
2019-03-23T05:04:56.228Z,49.75
2019-03-23T05:07:26.495Z,50.83
2019-03-23T05:09:57.198Z,53.92
2019-03-23T05:12:27.572Z,52.10
2019-03-23T05:14:57.812Z,52.48
2019-03-23T05:17:27.988Z,51.18
2019-03-23T05:19:58.224Z,56.50
2019-03-23T05:22:28.407Z,54.27
2019-03-23T05:24:58.623Z,53.83
2019-03-23T05:27:28.796Z,55.35
2019-03-23T05:29:59.009Z,51.08
2019-03-23T05:32:29.826Z,54.00
2019-03-23T05:35:00.045Z,48.95
2019-03-23T05:37:30.219Z,47.75
2019-03-23T05:40:00.476Z,46.15
2019-03-23T05:42:30.647Z,44.03
2019-03-23T05:45:01.563Z,39.98
2019-03-23T05:47:31.734Z,36.88
2019-03-23T05:50:01.961Z,36.25
2019-03-23T05:52:32.199Z,34.78
2019-03-23T05:55:02.505Z,33.40
2019-03-23T05:57:32.670Z,31.95
2019-03-23T06:00:03.170Z,33.15
2019-03-23T06:02:33.355Z,32.98
2019-03-23T06:05:03.581Z,32.28
2019-03-23T06:07:33.743Z,33.88
2019-03-23T06:10:04.427Z,31.55
2019-03-23T06:12:34.664Z,32.63
2019-03-23T06:15:05.071Z,30.57
2019-03-23T06:17:35.269Z,32.35
2019-03-23T06:20:05.716Z,31.90
2019-03-23T06:22:35.963Z,32.90
2019-03-23T06:25:06.899Z,32.93
2019-03-23T06:27:37.775Z,31.80
2019-03-23T06:30:08.963Z,33.67
2019-03-23T06:32:39.150Z,34.45
2019-03-23T06:35:09.614Z,32.10
2019-03-23T06:37:39.781Z,35.03
2019-03-23T06:40:10.608Z,34.25
2019-03-23T06:42:40.905Z,33.45
2019-03-23T06:45:11.744Z,35.28
2019-03-23T06:47:41.914Z,33.38
2019-03-23T06:50:13.230Z,32.70
2019-03-23T06:52:43.479Z,29.72
2019-03-23T06:55:16.994Z,37.03
2019-03-23T06:57:47.170Z,34.63
2019-03-23T07:00:18.038Z,32.30
2019-03-23T07:02:48.223Z,31.87
2019-03-23T07:05:18.519Z,37.10
2019-03-23T07:07:48.688Z,33.78
2019-03-23T07:10:18.848Z,34.03
2019-03-23T07:12:49.069Z,35.10
2019-03-23T07:15:20.474Z,33.48
2019-03-23T07:17:50.969Z,29.35
2019-03-23T07:20:21.129Z,31.80
2019-03-23T07:22:51.919Z,33.23
2019-03-23T07:25:22.194Z,34.38
2019-03-23T07:27:52.439Z,30.75
2019-03-23T07:30:22.631Z,29.72
2019-03-23T07:32:52.853Z,34.10
2019-03-23T07:35:23.106Z,30.65
2019-03-23T07:37:53.362Z,30.75
2019-03-23T07:40:23.570Z,30.02
2019-03-23T07:42:53.793Z,29.18
2019-03-23T07:45:23.984Z,33.23
2019-03-23T07:47:54.204Z,31.97
2019-03-23T07:50:24.376Z,31.60
2019-03-23T07:52:54.643Z,29.92
2019-03-23T07:55:24.826Z,30.95
2019-03-23T07:57:55.070Z,29.23
2019-03-23T08:00:25.259Z,30.90
2019-03-23T08:02:55.476Z,31.48
2019-03-23T08:05:26.122Z,30.40
2019-03-23T08:07:59.448Z,30.12
2019-03-23T08:10:31.867Z,32.05
2019-03-23T08:13:02.196Z,28.73
2019-03-23T08:15:32.575Z,30.27
2019-03-23T08:18:03.239Z,55.67
2019-03-23T08:20:33.451Z,31.97
2019-03-23T08:23:03.799Z,27.87
2019-03-23T08:25:33.983Z,27.15
2019-03-23T08:28:04.209Z,26.42
2019-03-23T08:30:34.459Z,31.68
2019-03-23T08:33:04.698Z,27.13
2019-03-23T08:35:34.907Z,26.25
2019-03-23T08:38:05.138Z,27.90
2019-03-23T08:40:35.890Z,29.87
2019-03-23T08:43:06.516Z,26.55
2019-03-23T08:45:37.353Z,27.07
2019-03-23T08:48:07.606Z,24.57
2019-03-23T08:50:37.928Z,26.07
2019-03-23T08:53:08.566Z,26.75
2019-03-23T08:55:38.794Z,28.42
2019-03-23T08:58:09.000Z,27.45
2019-03-23T09:00:39.179Z,23.98
2019-03-23T09:03:12.530Z,26.20
2019-03-23T09:05:42.731Z,25.40
2019-03-23T09:08:12.970Z,26.57
2019-03-23T09:10:43.222Z,25.90
2019-03-23T09:13:13.611Z,25.10
2019-03-23T09:15:43.834Z,24.75
2019-03-23T09:18:14.322Z,22.82
2019-03-23T09:20:44.565Z,25.50
2019-03-23T09:23:17.797Z,25.82
2019-03-23T09:25:48.008Z,25.85
2019-03-23T09:28:18.274Z,24.15
2019-03-23T09:30:48.476Z,21.45
2019-03-23T09:33:21.643Z,22.32
2019-03-23T09:35:51.932Z,23.45
2019-03-23T09:38:22.165Z,23.18
2019-03-23T09:40:52.356Z,23.30
2019-03-23T09:43:22.634Z,24.77
2019-03-23T09:45:52.858Z,23.02
2019-03-23T09:48:23.234Z,23.73
2019-03-23T09:50:53.472Z,24.90
2019-03-23T09:53:23.824Z,24.50
2019-03-23T09:56:01.333Z,23.35
2019-03-23T09:58:31.889Z,24.63
2019-03-23T10:01:02.099Z,22.90
2019-03-23T10:03:32.343Z,26.68
2019-03-23T10:06:02.530Z,23.95
2019-03-23T10:08:32.846Z,23.70
2019-03-23T10:11:03.087Z,21.30
2019-03-23T10:13:33.419Z,19.85
2019-03-23T10:16:03.683Z,22.07
2019-03-23T10:18:33.921Z,21.57
2019-03-23T10:21:05.358Z,23.42
2019-03-23T10:23:35.702Z,22.45
2019-03-23T10:26:05.932Z,21.87
2019-03-23T10:28:36.216Z,20.77
2019-03-23T10:31:06.434Z,20.95
2019-03-23T10:33:36.678Z,21.33
2019-03-23T10:36:06.893Z,22.10
2019-03-23T10:38:37.186Z,22.82
2019-03-23T10:41:07.685Z,21.70
2019-03-23T10:43:39.071Z,24.50
2019-03-23T10:46:11.328Z,22.65
2019-03-23T10:48:42.173Z,22.58
2019-03-23T10:51:12.374Z,20.75
2019-03-23T10:53:42.662Z,23.10
2019-03-23T10:56:12.899Z,22.65
2019-03-23T10:58:43.141Z,22.35
2019-03-23T11:01:13.398Z,19.62
2019-03-23T11:03:43.677Z,20.90
2019-03-23T11:06:13.937Z,21.07
2019-03-23T11:08:44.163Z,19.45
2019-03-23T11:11:14.428Z,18.02
2019-03-23T11:13:44.657Z,21.25
2019-03-23T11:16:15.255Z,22.00
2019-03-23T11:18:45.493Z,21.05
2019-03-23T11:21:15.718Z,19.40
2019-03-23T11:23:45.937Z,18.30
2019-03-23T11:26:16.307Z,18.45
2019-03-23T11:28:46.516Z,19.23
2019-03-23T11:31:16.758Z,22.30
2019-03-23T11:33:46.950Z,18.80
2019-03-23T11:36:17.177Z,15.93
2019-03-23T11:38:47.399Z,17.23
2019-03-23T11:41:17.607Z,16.20
2019-03-23T11:43:47.881Z,14.13
2019-03-23T11:46:18.117Z,15.48
2019-03-23T11:48:48.310Z,18.48
2019-03-23T11:51:18.510Z,13.22
2019-03-23T11:53:48.714Z,13.25
2019-03-23T11:56:18.926Z,13.80
2019-03-23T11:58:49.501Z,14.33
2019-03-23T12:01:19.719Z,14.07
2019-03-23T12:03:49.949Z,14.28
2019-03-23T12:06:20.222Z,12.35
2019-03-23T12:08:50.418Z,12.20
2019-03-23T12:11:20.749Z,13.15
2019-03-23T12:13:50.929Z,14.35
2019-03-23T12:16:21.234Z,15.23
2019-03-23T12:18:51.424Z,12.10
2019-03-23T12:21:21.671Z,11.15
2019-03-23T12:23:51.876Z,10.93
2019-03-23T12:26:22.621Z,10.08
2019-03-23T12:28:52.783Z,9.90
2019-03-23T12:31:23.025Z,11.05
2019-03-23T12:33:53.350Z,9.63
2019-03-23T12:36:23.590Z,10.08
2019-03-23T12:38:53.811Z,9.48
2019-03-23T12:41:24.051Z,9.98
2019-03-23T12:43:54.247Z,10.28
2019-03-23T12:46:24.619Z,9.50
2019-03-23T12:48:54.904Z,9.23
2019-03-23T12:51:25.177Z,8.28
2019-03-23T12:53:55.441Z,7.72
2019-03-23T12:56:25.695Z,8.10
2019-03-23T12:58:55.918Z,9.15
2019-03-23T13:01:26.170Z,8.53
2019-03-23T13:03:56.364Z,9.00
2019-03-23T13:06:27.148Z,8.75
2019-03-23T13:08:57.533Z,10.48
2019-03-23T13:11:34.882Z,9.60
2019-03-23T13:13:59.651Z,10.88
2019-03-23T13:16:29.918Z,10.28
2019-03-23T13:19:00.117Z,9.93
2019-03-23T13:21:30.336Z,8.70
2019-03-23T13:24:00.503Z,8.80
2019-03-23T13:26:30.743Z,8.70
2019-03-23T13:29:00.971Z,7.67
2019-03-23T13:31:31.299Z,8.58
2019-03-23T13:34:01.470Z,8.80
2019-03-23T13:36:32.158Z,9.13
2019-03-23T13:39:05.506Z,9.23
2019-03-23T13:41:44.607Z,9.68
2019-03-23T13:44:07.566Z,7.30
2019-03-23T13:46:37.813Z,8.25
2019-03-23T13:49:08.044Z,8.18
2019-03-23T13:51:38.428Z,8.43
2019-03-23T13:54:08.699Z,8.70
2019-03-23T13:56:38.977Z,8.30
2019-03-23T13:59:09.171Z,7.92
2019-03-23T14:01:39.531Z,8.50
2019-03-23T14:04:09.818Z,9.20
2019-03-23T14:06:40.194Z,8.05
2019-03-23T14:09:10.419Z,9.20
2019-03-23T14:11:40.644Z,8.05
2019-03-23T14:14:10.883Z,10.00
2019-03-23T14:16:41.161Z,9.48
2019-03-23T14:19:11.402Z,10.45
2019-03-23T14:21:43.774Z,8.25
2019-03-23T14:24:14.049Z,8.03
2019-03-23T14:26:44.726Z,7.10
2019-03-23T14:29:14.918Z,9.80
2019-03-23T14:31:45.144Z,8.28
2019-03-23T14:34:15.414Z,7.55
2019-03-23T14:36:45.647Z,9.88
2019-03-23T14:39:15.937Z,10.95
2019-03-23T14:41:46.411Z,8.73
2019-03-23T14:44:16.607Z,8.33
2019-03-23T14:46:46.987Z,7.95
2019-03-23T14:49:17.315Z,7.62
2019-03-23T14:51:47.560Z,9.30
2019-03-23T14:54:17.928Z,10.15
2019-03-23T14:56:48.216Z,9.08
2019-03-23T14:59:18.430Z,8.75
2019-03-23T15:01:48.756Z,8.78
2019-03-23T15:04:19.096Z,10.13
2019-03-23T15:06:49.535Z,9.58
2019-03-23T15:09:19.766Z,9.75
2019-03-23T15:11:50.064Z,7.55
2019-03-23T15:14:20.503Z,8.95
2019-03-23T15:16:50.838Z,7.80
2019-03-23T15:19:21.031Z,8.78
2019-03-23T15:21:51.250Z,8.53
2019-03-23T15:24:21.507Z,8.73
2019-03-23T15:26:51.829Z,8.03
2019-03-23T15:29:22.095Z,8.75
2019-03-23T15:31:52.282Z,9.60
2019-03-23T15:34:22.504Z,8.15
2019-03-23T15:36:52.736Z,8.50
2019-03-23T15:39:22.949Z,9.48
2019-03-23T15:41:53.126Z,8.83
2019-03-23T15:44:23.374Z,7.67
2019-03-23T15:46:53.580Z,8.98
2019-03-23T15:49:23.819Z,10.20
2019-03-23T15:51:54.055Z,8.50
2019-03-23T15:54:27.103Z,9.53
2019-03-23T15:56:57.275Z,8.78
2019-03-23T15:59:27.533Z,8.98
2019-03-23T16:01:57.731Z,10.08
2019-03-23T16:04:28.018Z,8.60
2019-03-23T16:06:58.248Z,9.70
2019-03-23T16:09:28.575Z,8.78
2019-03-23T16:11:58.850Z,9.03
2019-03-23T16:14:29.057Z,10.90
2019-03-23T16:16:59.364Z,9.60
2019-03-23T16:19:29.617Z,10.50
2019-03-23T16:21:59.919Z,9.23
2019-03-23T16:24:30.314Z,10.45
2019-03-23T16:27:00.561Z,9.48
2019-03-23T16:29:31.425Z,10.75
2019-03-23T16:32:01.797Z,10.40
2019-03-23T16:34:32.162Z,9.60
2019-03-23T16:37:02.555Z,10.18
2019-03-23T16:39:32.821Z,9.43
2019-03-23T16:42:05.342Z,9.88
2019-03-23T16:44:35.561Z,9.73
2019-03-23T16:47:05.801Z,10.03
2019-03-23T16:49:36.022Z,9.00
2019-03-23T16:52:06.327Z,9.93
2019-03-23T16:54:36.609Z,11.55
2019-03-23T16:57:06.808Z,11.40
2019-03-23T16:59:37.081Z,11.20
2019-03-23T17:02:07.289Z,10.58
2019-03-23T17:04:37.663Z,12.40
2019-03-23T17:07:08.022Z,11.40
2019-03-23T17:09:38.406Z,11.10
2019-03-23T17:12:08.782Z,10.80
2019-03-23T17:14:39.502Z,11.43
2019-03-23T17:17:09.773Z,10.65
2019-03-23T17:19:40.097Z,12.78
2019-03-23T17:22:10.478Z,13.65
2019-03-23T17:24:40.752Z,14.65
2019-03-23T17:27:11.032Z,12.53
2019-03-23T17:29:41.327Z,13.10
2019-03-23T17:32:11.515Z,13.80
2019-03-23T17:34:41.838Z,14.95
2019-03-23T17:37:12.095Z,16.35
2019-03-23T17:39:42.743Z,14.20
2019-03-23T17:42:13.650Z,16.95
2019-03-23T17:44:46.075Z,16.95
2019-03-23T17:47:15.745Z,18.48
2019-03-23T17:49:46.097Z,19.45
2019-03-23T17:52:16.369Z,17.17
2019-03-23T17:54:46.729Z,18.02
2019-03-23T17:57:17.000Z,18.17
2019-03-23T17:59:47.211Z,17.60
2019-03-23T18:02:17.481Z,19.85
2019-03-23T18:04:50.833Z,21.00
2019-03-23T18:07:21.388Z,18.62
2019-03-23T18:09:51.641Z,16.20
2019-03-23T18:12:21.886Z,17.98
2019-03-23T18:14:52.261Z,17.87
2019-03-23T18:17:22.776Z,19.55
2019-03-23T18:19:53.149Z,19.45
2019-03-23T18:22:23.400Z,18.62
2019-03-23T18:24:53.682Z,18.92
2019-03-23T18:27:23.887Z,21.85
2019-03-23T18:29:54.184Z,20.23
2019-03-23T18:32:25.065Z,23.42
2019-03-23T18:34:55.307Z,23.98
2019-03-23T18:37:25.670Z,24.27
2019-03-23T18:39:58.266Z,21.45
2019-03-23T18:42:28.489Z,22.73
2019-03-23T18:44:58.709Z,21.33
2019-03-23T18:47:29.119Z,22.17
2019-03-23T18:49:59.555Z,21.33
2019-03-23T18:52:30.260Z,20.10
2019-03-23T18:55:00.555Z,21.90
2019-03-23T18:57:30.836Z,21.97
2019-03-23T19:00:01.391Z,22.30
2019-03-23T19:02:33.095Z,21.85
2019-03-23T19:05:04.900Z,23.92
2019-03-23T19:07:35.157Z,23.85
2019-03-23T19:10:05.566Z,22.60
2019-03-23T19:12:36.316Z,21.50
2019-03-23T19:15:07.486Z,22.73
2019-03-23T19:17:37.739Z,25.35
2019-03-23T19:20:08.467Z,23.98
2019-03-23T19:22:38.731Z,22.17
2019-03-23T19:25:16.071Z,17.67
2019-03-23T19:27:41.422Z,15.00
2019-03-23T19:30:13.387Z,13.80
2019-03-23T19:32:43.903Z,13.15
2019-03-23T19:35:14.315Z,14.38
2019-03-23T19:37:44.724Z,15.23
2019-03-23T19:40:17.550Z,15.80
2019-03-23T19:42:47.785Z,17.40
2019-03-23T19:45:17.999Z,19.12
2019-03-23T19:47:48.256Z,23.55
2019-03-23T19:50:18.774Z,25.45
2019-03-23T19:52:57.119Z,23.42
2019-03-23T19:55:34.745Z,26.70
2019-03-23T19:58:14.702Z,27.13
2019-03-23T20:00:52.039Z,28.98
2019-03-23T20:03:27.670Z,32.50
2019-03-23T20:06:06.112Z,35.45
2019-03-23T20:08:52.832Z,33.13
2019-03-23T20:11:37.317Z,39.73
2019-03-23T20:14:25.166Z,34.18
2019-03-23T20:17:15.760Z,34.10
2019-03-23T20:20:04.813Z,34.30
2019-03-23T20:22:47.670Z,35.13
2019-03-23T20:25:40.084Z,35.08
2019-03-23T20:28:31.206Z,35.17
2019-03-23T20:31:23.145Z,35.05
2019-03-23T20:34:13.308Z,34.23
2019-03-23T20:36:59.783Z,29.20
2019-03-23T20:39:37.210Z,23.67
2019-03-23T20:42:07.526Z,21.35
2019-03-23T20:44:37.736Z,21.33
2019-03-23T20:47:08.103Z,20.48
2019-03-23T20:49:38.482Z,20.68
2019-03-23T20:52:08.715Z,25.40
2019-03-23T20:54:39.058Z,19.87
2019-03-23T20:57:10.008Z,18.15
2019-03-23T20:59:40.338Z,18.80
2019-03-23T21:02:10.563Z,18.40
2019-03-23T21:04:40.850Z,18.75
2019-03-23T21:07:11.153Z,18.77
2019-03-23T21:09:41.429Z,19.05
2019-03-23T21:12:12.374Z,18.37
2019-03-23T21:14:43.204Z,17.62
2019-03-23T21:17:13.562Z,18.27
2019-03-23T21:19:44.250Z,18.82
2019-03-23T21:22:14.533Z,17.92
2019-03-23T21:24:44.797Z,19.45
2019-03-23T21:27:15.279Z,18.65
2019-03-23T21:29:45.535Z,18.85
2019-03-23T21:32:15.772Z,18.65
2019-03-23T21:34:45.975Z,17.45
2019-03-23T21:37:16.762Z,17.98
2019-03-23T21:39:46.938Z,19.98
2019-03-23T21:42:17.182Z,18.25
2019-03-23T21:44:47.500Z,19.57
2019-03-23T21:47:17.845Z,18.70
2019-03-23T21:49:48.051Z,19.75
2019-03-23T21:52:18.331Z,19.50
2019-03-23T21:54:48.665Z,17.80
2019-03-23T21:57:19.663Z,19.87
2019-03-23T21:59:50.122Z,18.50
2019-03-23T22:02:20.372Z,18.70
2019-03-23T22:04:50.643Z,16.10
2019-03-23T22:07:20.892Z,16.05
2019-03-23T22:09:51.212Z,18.95
2019-03-23T22:12:21.414Z,20.60
2019-03-23T22:14:51.831Z,18.48
2019-03-23T22:17:22.132Z,18.02
2019-03-23T22:19:52.416Z,18.70
2019-03-23T22:22:22.690Z,16.57
2019-03-23T22:24:52.983Z,17.85
2019-03-23T22:27:23.389Z,18.62
2019-03-23T22:29:55.299Z,16.65
2019-03-23T22:32:25.565Z,19.00
2019-03-23T22:34:55.862Z,19.07
2019-03-23T22:37:26.122Z,18.52
2019-03-23T22:39:56.410Z,19.67
2019-03-23T22:42:26.588Z,19.10
2019-03-23T22:44:56.933Z,22.70
2019-03-23T22:47:27.139Z,20.72
2019-03-23T22:49:57.346Z,20.77
2019-03-23T22:52:27.725Z,19.95
2019-03-23T22:54:58.042Z,21.65
2019-03-23T22:57:28.470Z,22.17
2019-03-23T22:59:58.702Z,24.98
2019-03-23T23:02:29.209Z,26.60
2019-03-23T23:04:59.981Z,22.95
2019-03-23T23:07:30.142Z,23.77
2019-03-23T23:10:00.431Z,24.32
2019-03-23T23:12:30.663Z,27.58
2019-03-23T23:15:04.827Z,26.37
2019-03-23T23:17:33.334Z,24.95
2019-03-23T23:20:04.136Z,25.27
2019-03-23T23:22:34.353Z,26.07
2019-03-23T23:25:05.175Z,26.02
2019-03-23T23:27:35.541Z,27.17
2019-03-23T23:30:08.852Z,26.77
2019-03-23T23:32:39.376Z,29.48
2019-03-23T23:35:10.542Z,28.90
2019-03-23T23:37:41.762Z,29.32
2019-03-23T23:40:12.633Z,26.25
2019-03-23T23:42:43.434Z,29.25
2019-03-23T23:45:16.096Z,33.65
2019-03-23T23:47:46.405Z,31.02
2019-03-23T23:50:17.186Z,32.73
2019-03-23T23:52:47.385Z,34.78
2019-03-23T23:55:17.622Z,27.32
2019-03-23T23:57:47.869Z,31.33
